Time;durP1;ratioP1;P1;durP2;ratioP2;P2;SDS_P1;SDS_P2;PMS_P1;PMS_P2;Temp;Humidity;BMP_temperature;BMP_pressure;BME280_temperature;BME280_humidity;BME280_pressure;Samples;Min_cycle;Max_cycle;Signal;HPM_P1;HPM_P2
2021/04/21 00:01:23;;;;;;;24.80;11.73;;;8.30;87.70;;;;;;5097077;28;20175;-77
2021/04/21 00:03:51;;;;;;;27.75;12.13;;;8.30;87.80;;;;;;5096718;28;20248;-77
2021/04/21 00:06:18;;;;;;;19.08;10.35;;;8.30;88.10;;;;;;5096833;28;20183;-77
2021/04/21 00:08:45;;;;;;;24.33;11.50;;;8.20;88.00;;;;;;5096986;28;20191;-77
2021/04/21 00:11:12;;;;;;;31.00;13.07;;;8.20;88.30;;;;;;5095860;28;20163;-77
2021/04/21 00:13:38;;;;;;;24.65;11.60;;;8.20;88.30;;;;;;5096009;28;20198;-77
2021/04/21 00:16:05;;;;;;;28.15;13.95;;;8.20;88.00;;;;;;5095974;28;20164;-77
2021/04/21 00:18:33;;;;;;;24.67;11.88;;;8.10;88.80;;;;;;5096102;28;20223;-77
2021/04/21 00:21:02;;;;;;;32.90;13.90;;;8.10;88.90;;;;;;5095811;28;20657;-77
2021/04/21 00:23:31;;;;;;;34.45;13.63;;;8.00;89.20;;;;;;5095659;28;20205;-77
2021/04/21 00:25:58;;;;;;;25.92;11.95;;;8.00;89.40;;;;;;5095684;28;20753;-77
2021/04/21 00:28:28;;;;;;;33.50;14.57;;;8.00;89.50;;;;;;5095504;28;20289;-77
2021/04/21 00:30:55;;;;;;;30.90;13.57;;;8.00;89.80;;;;;;5095733;28;20155;-77
2021/04/21 00:33:23;;;;;;;26.95;13.25;;;7.90;90.60;;;;;;5095275;28;20187;-77
2021/04/21 00:35:51;;;;;;;30.50;14.27;;;7.80;91.00;;;;;;5095559;28;20173;-76
2021/04/21 00:38:20;;;;;;;33.22;15.43;;;7.80;91.10;;;;;;5095397;28;20171;-77
2021/04/21 00:40:45;;;;;;;35.70;15.40;;;7.80;91.30;;;;;;5113896;28;20164;-77
2021/04/21 00:43:54;;;;;;;31.80;14.97;;;7.80;91.40;;;;;;5095200;28;20191;-77
2021/04/21 00:46:32;;;;;;;34.15;14.88;;;7.80;91.30;;;;;;4994524;28;20448;-77
2021/04/21 00:49:12;;;;;;;32.45;14.38;;;7.70;91.30;;;;;;4994576;28;20198;-77
2021/04/21 00:51:48;;;;;;;32.75;14.45;;;7.70;91.10;;;;;;5062681;28;20240;-77
2021/04/21 00:54:54;;;;;;;32.58;15.38;;;7.70;91.00;;;;;;5113326;28;20595;-77
2021/04/21 00:57:28;;;;;;;27.52;13.90;;;7.60;90.90;;;;;;5080968;28;20175;-77
2021/04/21 01:00:12;;;;;;;27.75;15.35;;;7.60;91.60;;;;;;5094397;28;20195;-77
2021/04/21 01:02:45;;;;;;;29.45;13.80;;;7.70;91.30;;;;;;5094828;28;20271;-76
2021/04/21 01:05:14;;;;;;;30.08;15.02;;;7.60;91.30;;;;;;5094768;28;20258;-77
2021/04/21 01:07:47;;;;;;;29.40;15.63;;;7.60;91.30;;;;;;5095025;28;20244;-77
2021/04/21 01:10:15;;;;;;;38.85;16.45;;;7.60;91.50;;;;;;5094897;28;20174;-77
2021/04/21 01:12:46;;;;;;;36.97;16.25;;;7.60;91.70;;;;;;5094715;28;20187;-77
2021/04/21 01:15:14;;;;;;;33.83;16.70;;;7.60;91.50;;;;;;5094735;28;20163;-77
2021/04/21 01:17:43;;;;;;;32.97;15.82;;;7.60;91.90;;;;;;5095244;28;20171;-77
2021/04/21 01:20:16;;;;;;;35.53;16.42;;;7.60;92.40;;;;;;5094736;28;20174;-77
2021/04/21 01:23:12;;;;;;;39.30;15.40;;;7.60;91.90;;;;;;5094470;28;20611;-77
2021/04/21 01:26:10;;;;;;;28.05;15.20;;;7.60;92.10;;;;;;5094619;28;20171;-77
2021/04/21 01:28:44;;;;;;;31.63;14.85;;;7.60;91.70;;;;;;5094635;28;20666;-77
2021/04/21 01:31:13;;;;;;;29.70;15.00;;;7.60;91.50;;;;;;5094525;28;20247;-77
2021/04/21 01:33:44;;;;;;;32.95;15.15;;;7.50;91.50;;;;;;5094387;28;20206;-77
2021/04/21 01:36:11;;;;;;;34.05;15.20;;;7.50;91.80;;;;;;5094604;28;20354;-77
2021/04/21 01:38:39;;;;;;;31.83;15.00;;;7.50;91.80;;;;;;5094338;28;20167;-77
2021/04/21 01:41:11;;;;;;;38.72;15.18;;;7.50;91.80;;;;;;5094565;28;20236;-77
2021/04/21 01:43:47;;;;;;;32.33;15.30;;;7.40;92.10;;;;;;5112618;28;20198;-77
2021/04/21 01:46:16;;;;;;;36.53;16.50;;;7.40;91.80;;;;;;5094601;28;20174;-77
2021/04/21 01:48:42;;;;;;;33.67;15.40;;;7.40;91.80;;;;;;5094376;28;20199;-77
2021/04/21 01:51:32;;;;;;;35.30;16.85;;;7.30;91.90;;;;;;5094275;28;20182;-77
2021/04/21 01:54:14;;;;;;;36.15;16.35;;;7.30;92.20;;;;;;5094392;28;20222;-76
2021/04/21 01:56:49;;;;;;;36.63;16.17;;;7.30;92.60;;;;;;5094177;28;20167;-77
2021/04/21 01:59:21;;;;;;;38.08;17.05;;;7.20;92.90;;;;;;5094463;28;20646;-77
2021/04/21 02:02:02;;;;;;;38.92;16.02;;;7.10;93.20;;;;;;5093973;28;20199;-77
2021/04/21 02:05:05;;;;;;;35.38;16.08;;;7.10;93.70;;;;;;5094282;28;20294;-77
2021/04/21 02:08:03;;;;;;;37.25;17.45;;;7.00;93.90;;;;;;5094005;28;20178;-76
2021/04/21 02:10:47;;;;;;;36.70;15.43;;;6.90;94.20;;;;;;5094327;28;20642;-77
2021/04/21 02:13:38;;;;;;;38.95;16.90;;;6.90;94.70;;;;;;5098384;28;20258;-77
2021/04/21 02:16:16;;;;;;;42.15;16.80;;;6.80;94.80;;;;;;5098244;28;20254;-77
2021/04/21 02:19:23;;;;;;;46.33;18.58;;;6.80;94.90;;;;;;5098494;28;20177;-77
2021/04/21 02:21:53;;;;;;;35.80;15.45;;;6.80;95.20;;;;;;5098008;28;20164;-77
2021/04/21 02:24:44;;;;;;;40.53;17.10;;;6.70;95.40;;;;;;5098017;28;20248;-76
2021/04/21 02:27:25;;;;;;;34.13;14.95;;;6.70;95.50;;;;;;5098108;28;20229;-77
2021/04/21 02:30:15;;;;;;;40.15;16.83;;;6.70;95.30;;;;;;5097983;28;20171;-77
2021/04/21 02:33:01;;;;;;;38.33;17.50;;;6.70;95.70;;;;;;5115990;28;20183;-76
2021/04/21 02:35:46;;;;;;;38.35;17.25;;;6.70;95.70;;;;;;5097834;28;20179;-76
2021/04/21 02:38:40;;;;;;;30.10;14.38;;;6.60;95.60;;;;;;5097796;28;20171;-76
2021/04/21 02:41:06;;;;;;;33.05;15.65;;;6.60;95.80;;;;;;5097856;28;20585;-77
2021/04/21 02:43:54;;;;;;;35.95;15.85;;;6.50;96.00;;;;;;5098222;28;20298;-77
2021/04/21 02:46:57;;;;;;;32.47;14.65;;;6.50;96.00;;;;;;5098280;28;20438;-76
2021/04/21 02:49:23;;;;;;;34.17;16.25;;;6.50;96.20;;;;;;5097586;28;20199;-77
2021/04/21 02:52:19;;;;;;;38.83;16.63;;;6.50;96.20;;;;;;5098814;28;20178;-81
2021/04/21 02:55:22;;;;;;;36.30;15.43;;;6.50;96.30;;;;;;5101875;28;20427;-81
2021/04/21 02:58:10;;;;;;;38.78;15.35;;;6.50;96.20;;;;;;5103423;28;20167;-81
2021/04/21 03:00:51;;;;;;;32.90;14.50;;;6.50;96.10;;;;;;5103051;28;20582;-80
2021/04/21 03:03:32;;;;;;;34.22;16.27;;;6.50;95.90;;;;;;5103223;28;20199;-81
2021/04/21 03:06:09;;;;;;;38.95;15.52;;;6.50;96.10;;;;;;5103677;28;20540;-81
2021/04/21 03:09:06;;;;;;;38.25;17.13;;;6.60;95.90;;;;;;5103396;28;20693;-80
2021/04/21 03:11:33;;;;;;;27.45;15.48;;;6.60;95.60;;;;;;5103715;28;20522;-80
2021/04/21 03:14:03;;;;;;;40.65;15.95;;;6.70;95.30;;;;;;5103473;28;20187;-80
2021/04/21 03:16:37;;;;;;;51.40;17.58;;;6.60;95.20;;;;;;5102742;28;20175;-80
2021/04/21 03:19:08;;;;;;;35.95;17.05;;;6.60;95.40;;;;;;5103775;28;20634;-80
2021/04/21 03:21:41;;;;;;;36.13;16.02;;;6.60;95.30;;;;;;5103246;28;20602;-81
2021/04/21 03:24:21;;;;;;;38.42;16.10;;;6.60;95.20;;;;;;5102809;28;20238;-80
2021/04/21 03:26:51;;;;;;;30.65;15.27;;;6.60;95.30;;;;;;5102944;28;20167;-80
2021/04/21 03:29:41;;;;;;;33.78;14.88;;;6.50;95.40;;;;;;5102906;28;20195;-80
2021/04/21 03:32:22;;;;;;;48.08;17.55;;;6.50;95.60;;;;;;5103138;28;20166;-80
2021/04/21 03:34:49;;;;;;;32.17;16.13;;;6.60;95.40;;;;;;5103556;28;20191;-81
2021/04/21 03:37:21;;;;;;;46.55;19.00;;;6.60;95.30;;;;;;5103358;28;20178;-81
2021/04/21 03:39:48;;;;;;;35.13;16.17;;;6.50;95.40;;;;;;5103037;28;20232;-81
2021/04/21 03:42:14;;;;;;;36.85;17.13;;;6.50;95.30;;;;;;5103430;28;20171;-81
2021/04/21 03:44:41;;;;;;;39.78;16.70;;;6.50;95.20;;;;;;5102152;28;20195;-80
2021/04/21 03:47:08;;;;;;;38.58;18.08;;;6.40;95.40;;;;;;5101721;28;20167;-80
2021/04/21 03:49:37;;;;;;;33.83;16.63;;;6.40;95.50;;;;;;5101101;28;20297;-80
2021/04/21 03:52:04;;;;;;;39.42;18.23;;;6.30;95.60;;;;;;5101390;28;20167;-80
2021/04/21 03:54:31;;;;;;;36.40;16.88;;;6.30;95.70;;;;;;5101536;28;20735;-80
2021/04/21 03:57:00;;;;;;;43.08;18.00;;;6.20;96.10;;;;;;5100889;28;20171;-80
2021/04/21 03:59:28;;;;;;;31.92;16.17;;;6.20;96.20;;;;;;5101735;28;20170;-80
2021/04/21 04:01:59;;;;;;;44.20;17.83;;;6.20;96.20;;;;;;5101619;28;20510;-80
2021/04/21 04:04:29;;;;;;;44.00;20.27;;;6.10;96.40;;;;;;5101634;28;20521;-80
2021/04/21 04:07:03;;;;;;;34.72;16.27;;;6.10;96.50;;;;;;5102319;28;20164;-80
2021/04/21 04:09:31;;;;;;;34.05;17.30;;;6.00;96.90;;;;;;5101972;28;20540;-80
2021/04/21 04:12:03;;;;;;;36.97;17.40;;;6.00;96.90;;;;;;5101525;28;20178;-80
2021/04/21 04:14:32;;;;;;;35.42;16.52;;;6.00;96.80;;;;;;5101947;28;20187;-80
2021/04/21 04:17:00;;;;;;;36.58;17.98;;;6.00;96.80;;;;;;5101088;28;20228;-80
2021/04/21 04:19:28;;;;;;;42.55;17.30;;;6.00;96.80;;;;;;5101133;28;20175;-80
2021/04/21 04:22:03;;;;;;;42.75;17.98;;;5.90;97.00;;;;;;5100946;28;20171;-80
2021/04/21 04:24:35;;;;;;;46.28;19.25;;;5.90;97.10;;;;;;5101786;28;20196;-80
2021/04/21 04:27:04;;;;;;;42.00;17.70;;;5.90;97.10;;;;;;5101681;28;20274;-80
2021/04/21 04:29:31;;;;;;;42.63;17.83;;;5.90;97.10;;;;;;5102454;28;20270;-80
2021/04/21 04:31:59;;;;;;;46.85;17.85;;;5.90;97.30;;;;;;5101879;28;20175;-80
2021/04/21 04:34:28;;;;;;;38.47;18.02;;;5.80;97.40;;;;;;5101732;28;20297;-80
2021/04/21 04:36:55;;;;;;;36.40;17.55;;;5.90;97.40;;;;;;5102071;28;20168;-82
2021/04/21 04:39:21;;;;;;;36.15;16.98;;;5.90;97.10;;;;;;5105263;28;20167;-80
2021/04/21 04:41:47;;;;;;;41.60;17.33;;;5.80;97.40;;;;;;5106400;28;20195;-81
2021/04/21 04:44:14;;;;;;;41.08;18.35;;;5.90;97.30;;;;;;5104024;28;20489;-83
2021/04/21 04:46:44;;;;;;;46.58;19.08;;;5.90;97.10;;;;;;5102652;28;20205;-83
2021/04/21 04:49:15;;;;;;;41.92;19.05;;;5.90;97.30;;;;;;5102800;28;20203;-85
2021/04/21 04:51:46;;;;;;;43.60;18.75;;;5.90;97.00;;;;;;5100957;28;20251;-85
2021/04/21 04:54:15;;;;;;;42.15;18.50;;;5.90;97.00;;;;;;5101173;28;20197;-85
2021/04/21 04:56:45;;;;;;;48.17;18.25;;;6.00;96.90;;;;;;5101652;28;20164;-85
2021/04/21 04:59:13;;;;;;;43.95;17.30;;;5.90;96.90;;;;;;5101841;28;20179;-84
2021/04/21 05:01:46;;;;;;;41.47;17.38;;;5.90;96.90;;;;;;5103101;28;20654;-82
2021/04/21 05:04:14;;;;;;;45.30;17.52;;;5.90;97.30;;;;;;5103498;28;20195;-82
2021/04/21 05:06:48;;;;;;;44.47;19.00;;;5.90;97.40;;;;;;5103114;28;20194;-82
2021/04/21 05:09:18;;;;;;;40.88;16.38;;;5.90;97.30;;;;;;5100383;28;20187;-82
2021/04/21 05:11:48;;;;;;;43.42;18.50;;;5.90;97.10;;;;;;5100695;28;20258;-82
2021/04/21 05:14:17;;;;;;;39.25;18.17;;;5.90;97.30;;;;;;5100520;28;20278;-82
2021/04/21 05:17:06;;;;;;;37.45;17.48;;;5.90;97.30;;;;;;5099744;28;20167;-82
2021/04/21 05:19:50;;;;;;;36.55;17.48;;;5.90;97.00;;;;;;5051165;28;20179;-82
2021/04/21 05:22:49;;;;;;;47.15;17.45;;;5.90;96.80;;;;;;5100233;28;20163;-82
2021/04/21 05:25:21;;;;;;;50.15;18.17;;;5.90;96.90;;;;;;5099967;28;20170;-82
2021/04/21 05:28:17;;;;;;;39.30;17.60;;;5.90;96.80;;;;;;5099299;28;20191;-82
2021/04/21 05:31:14;;;;;;;37.65;16.88;;;5.90;97.00;;;;;;5100443;28;20167;-82
2021/04/21 05:34:17;;;;;;;40.15;17.60;;;5.90;97.00;;;;;;5099454;28;20213;-82
2021/04/21 05:37:19;;;;;;;43.28;18.10;;;5.90;97.10;;;;;;5109923;22;20297;-80
2021/04/21 05:39:57;;;;;;;40.53;18.25;;;5.90;96.80;;;;;;5076071;28;20627;-79
2021/04/21 05:42:50;;;;;;;45.28;19.20;;;5.90;97.00;;;;;;5075265;28;20639;-79
2021/04/21 05:45:38;;;;;;;43.20;18.02;;;5.90;97.00;;;;;;5075229;28;20168;-79
2021/04/21 05:48:34;;;;;;;46.45;17.52;;;6.00;96.70;;;;;;5075680;28;20584;-79
2021/04/21 05:51:03;;;;;;;51.53;19.13;;;6.00;96.60;;;;;;5076041;28;20183;-79
2021/04/21 05:53:34;;;;;;;40.22;17.73;;;6.10;96.70;;;;;;5076275;28;20190;-79
2021/04/21 05:56:33;;;;;;;50.25;19.65;;;6.10;96.90;;;;;;5076055;28;20180;-79
2021/04/21 05:59:05;;;;;;;38.15;17.23;;;6.20;96.50;;;;;;5075615;28;20542;-79
2021/04/21 06:01:43;;;;;;;36.25;17.80;;;6.30;96.20;;;;;;5075507;28;20199;-79
2021/04/21 06:04:09;;;;;;;38.72;18.90;;;6.40;95.90;;;;;;5075327;28;20226;-80
2021/04/21 06:06:35;;;;;;;44.73;19.50;;;6.50;95.60;;;;;;5075620;28;20635;-79
2021/04/21 06:09:11;;;;;;;40.73;18.13;;;6.60;95.60;;;;;;5075554;28;20192;-79
2021/04/21 06:11:37;;;;;;;51.90;20.77;;;6.60;95.30;;;;;;5075709;28;20401;-79
2021/04/21 06:14:06;;;;;;;58.28;21.45;;;6.70;95.10;;;;;;5074837;28;20690;-79
2021/04/21 06:16:33;;;;;;;40.67;19.60;;;6.80;95.10;;;;;;5075523;28;20663;-79
2021/04/21 06:19:07;;;;;;;44.55;19.42;;;6.90;94.60;;;;;;5075472;28;20203;-79
2021/04/21 06:21:38;;;;;;;46.17;21.50;;;7.00;94.20;;;;;;5075381;28;20523;-79
2021/04/21 06:24:18;;;;;;;53.80;22.25;;;7.00;94.20;;;;;;5075285;28;20188;-79
2021/04/21 06:26:43;;;;;;;38.53;18.77;;;7.10;93.90;;;;;;5075802;28;20218;-79
2021/04/21 06:29:10;;;;;;;51.20;20.67;;;7.20;93.90;;;;;;5075387;28;20253;-79
2021/04/21 06:31:40;;;;;;;52.20;18.63;;;7.20;93.80;;;;;;5075421;28;20462;-79
2021/04/21 06:34:08;;;;;;;46.20;19.67;;;7.40;93.40;;;;;;5074794;28;20282;-79
2021/04/21 06:36:57;;;;;;;61.28;23.48;;;7.50;93.10;;;;;;5075569;28;20191;-79
2021/04/21 06:39:24;;;;;;;48.90;20.70;;;7.70;92.70;;;;;;5075629;28;20178;-79
2021/04/21 06:41:58;;;;;;;45.30;20.50;;;7.80;92.50;;;;;;5074903;28;20203;-79
2021/04/21 06:44:45;;;;;;;49.67;18.52;;;8.00;92.10;;;;;;5075359;28;20565;-79
2021/04/21 06:47:22;;;;;;;46.42;20.98;;;8.10;91.70;;;;;;5075311;28;20246;-79
2021/04/21 06:50:10;;;;;;;46.70;21.48;;;8.30;91.40;;;;;;5075432;28;20176;-79
2021/04/21 06:52:38;;;;;;;45.80;21.17;;;8.40;90.60;;;;;;5075244;28;20655;-79
2021/04/21 06:55:07;;;;;;;52.90;21.10;;;8.50;90.40;;;;;;5075089;28;20719;-79
2021/04/21 06:57:33;;;;;;;46.08;19.92;;;8.70;90.20;;;;;;5075136;28;20598;-79
2021/04/21 07:00:17;;;;;;;46.67;21.48;;;8.80;89.60;;;;;;5096827;28;20191;-79
2021/04/21 07:02:46;;;;;;;53.00;20.50;;;8.90;89.40;;;;;;5078323;28;20223;-79
2021/04/21 07:05:37;;;;;;;48.20;19.67;;;9.00;88.90;;;;;;5078470;28;20218;-79
2021/04/21 07:08:11;;;;;;;47.50;20.73;;;9.20;88.10;;;;;;5078258;28;20196;-79
2021/04/21 07:10:41;;;;;;;54.55;21.75;;;9.30;87.60;;;;;;5078250;28;20170;-80
2021/04/21 07:13:15;;;;;;;45.15;20.55;;;9.40;87.10;;;;;;5078109;28;20192;-79
2021/04/21 07:15:42;;;;;;;45.28;19.33;;;9.60;87.00;;;;;;5078480;28;20251;-79
2021/04/21 07:18:13;;;;;;;41.20;21.23;;;9.70;86.30;;;;;;5078366;28;20175;-78
2021/04/21 07:20:39;;;;;;;40.75;19.35;;;9.80;85.90;;;;;;5078333;28;20287;-79
2021/04/21 07:23:05;;;;;;;43.60;20.33;;;9.90;86.20;;;;;;5077902;28;20219;-79
2021/04/21 07:25:31;;;;;;;48.45;20.60;;;10.10;86.00;;;;;;5078102;28;20167;-79
2021/04/21 07:27:56;;;;;;;45.33;19.67;;;10.20;84.40;;;;;;5078047;28;20248;-79
2021/04/21 07:30:32;;;;;;;45.37;21.13;;;10.30;84.20;;;;;;5078414;28;20406;-79
2021/04/21 07:32:58;;;;;;;43.72;19.90;;;10.40;84.40;;;;;;5077610;28;20453;-79
2021/04/21 07:35:26;;;;;;;41.10;20.52;;;10.60;82.80;;;;;;5078212;28;20194;-79
2021/04/21 07:37:55;;;;;;;44.17;20.73;;;10.70;82.70;;;;;;5078607;28;20187;-79
2021/04/21 07:40:37;;;;;;;39.88;19.23;;;10.80;83.00;;;;;;5078374;28;20172;-79
2021/04/21 07:43:05;;;;;;;46.13;21.40;;;11.00;81.70;;;;;;5078079;28;20200;-79
2021/04/21 07:45:46;;;;;;;40.80;19.27;;;11.10;82.10;;;;;;5078324;28;20263;-79
2021/04/21 07:48:34;;;;;;;44.38;19.13;;;11.30;81.20;;;;;;5078087;28;20200;-79
2021/04/21 07:51:24;;;;;;;38.30;18.92;;;11.40;80.80;;;;;;5078462;28;20171;-79
2021/04/21 07:53:58;;;;;;;45.95;21.20;;;11.60;80.30;;;;;;5078134;28;20555;-79
2021/04/21 07:56:28;;;;;;;43.80;19.73;;;11.80;79.90;;;;;;5078283;28;20237;-79
2021/04/21 07:58:54;;;;;;;41.05;19.95;;;11.90;79.80;;;;;;5077791;28;20168;-79
2021/04/21 08:01:35;;;;;;;43.57;20.67;;;12.10;79.10;;;;;;5077869;28;20512;-79
2021/04/21 08:04:26;;;;;;;38.95;20.02;;;12.20;78.50;;;;;;5077863;28;20431;-78
2021/04/21 08:06:58;;;;;;;46.55;19.95;;;12.40;78.10;;;;;;5077078;28;20684;-78
2021/04/21 08:09:25;;;;;;;40.22;18.02;;;12.60;75.80;;;;;;5076397;28;20203;-78
2021/04/21 08:12:07;;;;;;;47.38;20.48;;;12.70;76.70;;;;;;5076432;28;20167;-78
2021/04/21 08:14:38;;;;;;;43.65;20.73;;;12.80;75.80;;;;;;5076320;28;20202;-78
2021/04/21 08:17:03;;;;;;;45.03;21.52;;;13.00;76.60;;;;;;5076324;28;20271;-78
2021/04/21 08:19:35;;;;;;;44.07;20.50;;;13.20;75.30;;;;;;5075967;28;20232;-78
2021/04/21 08:22:01;;;;;;;39.63;19.88;;;13.40;75.50;;;;;;5076119;28;20200;-78
2021/04/21 08:24:27;;;;;;;43.37;20.03;;;13.60;74.90;;;;;;5077116;28;20278;-79
2021/04/21 08:26:54;;;;;;;44.13;21.20;;;13.70;73.30;;;;;;5077630;28;20212;-79
2021/04/21 08:29:20;;;;;;;44.70;20.55;;;13.90;73.50;;;;;;5077097;28;20191;-80
2021/04/21 08:31:52;;;;;;;43.78;19.23;;;14.00;72.30;;;;;;5077307;28;20223;-79
2021/04/21 08:34:20;;;;;;;45.20;20.95;;;14.10;72.10;;;;;;5077511;28;20252;-79
2021/04/21 08:36:47;;;;;;;45.03;19.92;;;14.40;72.40;;;;;;5077693;28;20716;-79
2021/04/21 08:39:14;;;;;;;43.70;21.48;;;14.50;71.90;;;;;;5077170;28;20167;-80
2021/04/21 08:41:42;;;;;;;60.08;22.63;;;14.80;69.50;;;;;;5077088;28;20176;-79
2021/04/21 08:44:09;;;;;;;48.97;20.05;;;14.90;68.80;;;;;;5077941;28;20200;-79
2021/04/21 08:46:36;;;;;;;49.92;21.00;;;15.00;69.40;;;;;;5077864;28;20172;-79
2021/04/21 08:49:04;;;;;;;47.97;20.60;;;15.20;68.50;;;;;;5078141;28;20664;-79
2021/04/21 08:51:32;;;;;;;38.97;19.70;;;15.40;66.60;;;;;;5077781;28;20168;-80
2021/04/21 08:54:07;;;;;;;43.47;21.30;;;15.60;67.00;;;;;;5077641;28;20194;-79
2021/04/21 08:56:36;;;;;;;34.88;19.25;;;15.70;66.00;;;;;;5077334;28;20186;-79
2021/04/21 08:59:05;;;;;;;53.63;21.02;;;15.80;64.10;;;;;;5078013;28;20172;-79
2021/04/21 09:01:31;;;;;;;43.95;20.52;;;15.90;63.40;;;;;;5077628;28;20538;-80
2021/04/21 09:03:57;;;;;;;43.47;20.43;;;16.10;63.90;;;;;;5077605;28;20202;-79
2021/04/21 09:06:23;;;;;;;38.25;19.13;;;16.20;63.00;;;;;;5077837;28;20449;-79
2021/04/21 09:08:55;;;;;;;37.00;17.65;;;16.40;61.20;;;;;;5077940;28;20200;-79
2021/04/21 09:11:22;;;;;;;39.85;19.05;;;16.50;60.30;;;;;;5077095;28;20172;-80
2021/04/21 09:13:48;;;;;;;35.00;17.70;;;16.60;59.30;;;;;;5077140;28;20282;-80
2021/04/21 09:16:17;;;;;;;35.50;19.00;;;16.80;59.80;;;;;;5095924;28;20652;-80
2021/04/21 09:18:44;;;;;;;34.78;18.42;;;16.90;59.80;;;;;;5077419;28;20442;-79
2021/04/21 09:21:18;;;;;;;35.03;17.02;;;17.10;58.30;;;;;;5077023;28;20171;-80
2021/04/21 09:23:46;;;;;;;27.98;15.80;;;17.30;55.80;;;;;;5077339;28;20191;-80
2021/04/21 09:26:15;;;;;;;31.15;17.25;;;17.60;53.60;;;;;;5077008;28;20249;-79
2021/04/21 09:28:43;;;;;;;38.75;19.25;;;17.80;52.60;;;;;;5077057;28;20192;-79
2021/04/21 09:31:17;;;;;;;28.38;16.65;;;17.90;53.60;;;;;;5077218;28;20168;-79
2021/04/21 09:33:44;;;;;;;42.72;18.83;;;18.00;52.20;;;;;;5076325;28;20187;-79
2021/04/21 09:36:10;;;;;;;37.55;18.02;;;18.00;52.50;;;;;;5076609;28;20651;-79
2021/04/21 09:38:37;;;;;;;34.87;18.20;;;18.00;54.20;;;;;;5076742;28;20228;-79
2021/04/21 09:41:26;;;;;;;34.78;16.58;;;17.90;53.60;;;;;;5076450;28;20406;-79
2021/04/21 09:43:52;;;;;;;31.42;16.85;;;18.00;54.30;;;;;;5076110;28;20195;-79
2021/04/21 09:46:20;;;;;;;32.72;16.83;;;18.10;54.10;;;;;;5076953;28;20171;-79
2021/04/21 09:48:47;;;;;;;42.05;19.20;;;18.30;54.20;;;;;;5077243;28;20199;-79
2021/04/21 09:51:15;;;;;;;28.50;14.45;;;18.40;53.60;;;;;;5076186;28;20171;-79
2021/04/21 09:53:51;;;;;;;38.83;18.95;;;18.60;54.20;;;;;;5076971;28;20274;-79
2021/04/21 09:56:19;;;;;;;34.25;16.65;;;18.90;54.60;;;;;;5076520;28;20266;-79
2021/04/21 09:58:48;;;;;;;27.80;15.90;;;19.10;52.60;;;;;;5075223;28;20186;-79
2021/04/21 10:01:41;;;;;;;33.28;15.60;;;19.30;50.90;;;;;;5075624;28;20172;-79
2021/04/21 10:04:22;;;;;;;32.42;15.85;;;19.60;50.70;;;;;;5073232;28;20230;-79
2021/04/21 10:06:53;;;;;;;28.08;14.75;;;19.70;51.20;;;;;;5075578;28;20653;-78
2021/04/21 10:09:37;;;;;;;21.35;12.20;;;20.00;49.90;;;;;;5075649;28;20191;-79
2021/04/21 10:12:25;;;;;;;30.90;16.58;;;20.30;50.50;;;;;;5075433;28;20202;-79
2021/04/21 10:15:00;;;;;;;29.20;14.63;;;20.20;45.60;;;;;;5075956;28;20636;-78
2021/04/21 10:17:27;;;;;;;20.55;12.40;;;20.10;46.30;;;;;;5075316;28;20171;-79
2021/04/21 10:19:53;;;;;;;23.65;13.15;;;20.30;44.30;;;;;;5075461;28;20231;-77
2021/04/21 10:22:19;;;;;;;22.15;12.43;;;20.40;43.70;;;;;;5093825;28;20238;-79
2021/04/21 10:24:47;;;;;;;16.95;9.88;;;20.30;41.40;;;;;;5075532;28;20183;-78
2021/04/21 10:27:14;;;;;;;18.00;8.23;;;20.40;42.00;;;;;;5076519;28;20183;-79
2021/04/21 10:29:41;;;;;;;16.80;9.90;;;20.70;39.40;;;;;;5076902;28;20260;-80
2021/04/21 10:32:07;;;;;;;24.13;11.90;;;20.90;40.50;;;;;;5075504;28;20172;-79
2021/04/21 10:34:33;;;;;;;24.77;13.40;;;21.20;41.40;;;;;;5078457;28;20188;-79
2021/04/21 10:37:00;;;;;;;19.88;11.75;;;21.40;41.60;;;;;;5078876;28;20188;-79
2021/04/21 10:39:35;;;;;;;23.60;11.82;;;21.50;41.80;;;;;;5079285;28;20175;-79
2021/04/21 10:42:05;;;;;;;22.15;12.38;;;21.60;42.20;;;;;;5078737;28;20176;-78
2021/04/21 10:44:32;;;;;;;22.83;12.02;;;21.50;41.10;;;;;;5077719;28;20202;-77
2021/04/21 10:47:18;;;;;;;22.63;12.15;;;21.50;41.60;;;;;;5077772;28;20172;-77
2021/04/21 10:50:08;;;;;;;22.10;12.23;;;21.50;42.00;;;;;;5095500;28;20199;-77
2021/04/21 10:52:37;;;;;;;25.23;11.90;;;21.50;40.60;;;;;;5077746;28;20213;-78
2021/04/21 10:55:10;;;;;;;23.80;11.23;;;21.40;40.30;;;;;;5077869;28;20168;-78
2021/04/21 10:57:55;;;;;;;24.88;12.85;;;21.50;40.80;;;;;;5079851;28;20206;-79
2021/04/21 11:00:28;;;;;;;24.88;12.93;;;21.50;41.90;;;;;;5082223;28;20156;-78
2021/04/21 11:03:00;;;;;;;23.20;13.52;;;21.70;39.80;;;;;;5080813;28;20340;-78
2021/04/21 11:05:40;;;;;;;21.95;11.70;;;21.80;40.50;;;;;;5081084;28;20235;-79
2021/04/21 11:08:07;;;;;;;19.67;10.45;;;21.80;39.70;;;;;;5080804;28;20198;-79
2021/04/21 11:10:50;;;;;;;20.25;11.75;;;21.60;40.70;;;;;;5080837;28;20163;-79
2021/04/21 11:13:23;;;;;;;18.77;11.30;;;21.60;41.10;;;;;;5081879;28;20541;-79
2021/04/21 11:15:51;;;;;;;24.23;11.40;;;21.70;41.20;;;;;;5083031;28;20163;-79
2021/04/21 11:18:27;;;;;;;20.52;12.55;;;21.90;40.20;;;;;;5080364;28;20301;-79
2021/04/21 11:20:58;;;;;;;33.90;11.77;;;21.80;39.30;;;;;;5081605;28;20627;-79
2021/04/21 11:23:45;;;;;;;22.40;11.75;;;21.80;37.70;;;;;;5082075;28;20736;-79
2021/04/21 11:26:27;;;;;;;17.13;10.85;;;22.00;38.50;;;;;;5082070;28;20167;-79
2021/04/21 11:29:08;;;;;;;16.38;9.98;;;22.30;36.30;;;;;;5081163;28;20209;-78
2021/04/21 11:31:46;;;;;;;15.75;9.50;;;22.40;34.40;;;;;;5081985;28;20213;-79
2021/04/21 11:34:17;;;;;;;19.30;9.48;;;22.50;35.90;;;;;;5081467;28;20255;-78
2021/04/21 11:36:43;;;;;;;15.63;8.70;;;22.30;33.60;;;;;;5082934;28;20278;-81
2021/04/21 11:39:11;;;;;;;14.37;8.60;;;22.30;34.30;;;;;;5080799;28;20217;-82
2021/04/21 11:41:47;;;;;;;11.90;7.45;;;22.40;34.80;;;;;;5080093;28;20217;-81
2021/04/21 11:44:47;;;;;;;12.73;7.45;;;22.60;33.60;;;;;;5080473;28;20260;-81
2021/04/21 11:47:33;;;;;;;13.48;8.50;;;22.70;32.20;;;;;;5081400;28;20172;-82
2021/04/21 11:49:59;;;;;;;19.00;9.00;;;22.60;35.60;;;;;;5080920;28;20191;-81
2021/04/21 11:52:58;;;;;;;15.30;8.00;;;22.80;35.20;;;;;;5098721;28;20179;-81
2021/04/21 11:55:31;;;;;;;13.40;8.23;;;22.80;32.30;;;;;;5080991;28;20459;-82
2021/04/21 11:58:11;;;;;;;13.55;8.05;;;23.00;31.40;;;;;;5081648;28;20179;-82
2021/04/21 12:00:47;;;;;;;18.63;10.00;;;23.10;34.00;;;;;;5081778;28;20193;-81
2021/04/21 12:03:29;;;;;;;18.65;9.68;;;23.20;33.50;;;;;;5081916;28;20694;-81
2021/04/21 12:06:00;;;;;;;18.23;10.70;;;23.30;32.20;;;;;;5080652;28;20179;-81
2021/04/21 12:08:28;;;;;;;19.00;8.93;;;23.10;33.10;;;;;;5080391;28;20191;-81
2021/04/21 12:10:56;;;;;;;11.98;7.88;;;23.00;35.00;;;;;;5080255;28;20165;-81
2021/04/21 12:13:51;;;;;;;16.52;8.25;;;23.00;33.40;;;;;;5080696;28;20278;-81
2021/04/21 12:16:18;;;;;;;17.08;10.30;;;23.20;32.30;;;;;;5071814;28;20183;-81
2021/04/21 12:18:48;;;;;;;19.92;10.50;;;23.30;34.30;;;;;;5081453;28;20565;-81
2021/04/21 12:21:14;;;;;;;21.40;11.25;;;23.40;35.30;;;;;;5081413;28;20164;-81
2021/04/21 12:23:41;;;;;;;18.93;10.80;;;23.50;35.20;;;;;;5080682;28;20721;-82
2021/04/21 12:26:21;;;;;;;16.50;10.18;;;23.80;34.60;;;;;;5080298;28;20402;-81
2021/04/21 12:28:53;;;;;;;17.27;10.77;;;23.90;34.70;;;;;;5079605;28;20195;-81
2021/04/21 12:31:22;;;;;;;17.85;10.30;;;23.90;33.50;;;;;;5079302;28;20640;-81
2021/04/21 12:33:53;;;;;;;18.35;10.13;;;23.80;33.10;;;;;;5078533;28;20280;-81
2021/04/21 12:36:23;;;;;;;15.93;7.57;;;23.90;32.30;;;;;;5079148;28;20673;-81
2021/04/21 12:39:11;;;;;;;12.95;7.30;;;23.90;31.80;;;;;;5079809;28;20171;-81
2021/04/21 12:41:39;;;;;;;13.10;7.30;;;24.00;30.90;;;;;;5096681;28;20503;-81
2021/04/21 12:44:17;;;;;;;15.70;8.68;;;23.70;30.90;;;;;;5079319;28;20229;-80
2021/04/21 12:46:47;;;;;;;18.60;8.80;;;23.60;30.20;;;;;;5078521;28;20178;-82
2021/04/21 12:49:14;;;;;;;14.90;8.50;;;23.50;31.30;;;;;;5079025;28;20195;-82
2021/04/21 12:51:49;;;;;;;14.27;8.57;;;23.60;31.20;;;;;;5080816;28;20207;-82
2021/04/21 12:54:36;;;;;;;13.45;7.90;;;23.50;31.70;;;;;;5080569;28;20620;-82
2021/04/21 12:57:04;;;;;;;11.73;7.20;;;23.70;30.90;;;;;;5079372;28;20164;-80
2021/04/21 12:59:57;;;;;;;10.68;6.85;;;23.80;32.70;;;;;;5079409;28;20175;-79
2021/04/21 13:02:43;;;;;;;12.30;7.43;;;24.20;31.70;;;;;;5079534;28;20198;-82
2021/04/21 13:05:11;;;;;;;14.80;9.25;;;24.00;29.30;;;;;;5079545;28;20167;-82
2021/04/21 13:07:37;;;;;;;17.35;9.65;;;23.50;30.20;;;;;;5079688;28;20168;-82
2021/04/21 13:10:10;;;;;;;14.37;8.70;;;23.20;32.60;;;;;;5080548;28;20180;-82